Time;durP1;ratioP1;P1;durP2;ratioP2;P2;SDS_P1;SDS_P2;PMS_P1;PMS_P2;Temp;Humidity;BMP_temperature;BMP_pressure;BME280_temperature;BME280_humidity;BME280_pressure;Samples;Min_cycle;Max_cycle;Signal;HPM_P1;HPM_P2
2022/07/29 00:02:12;;;;;;;6.53;5.53;;;20.80;77.90;;;;;;4974873;28;20196;-59
2022/07/29 00:04:37;;;;;;;7.27;5.33;;;20.70;77.80;;;;;;4984484;28;20199;-59
2022/07/29 00:07:04;;;;;;;6.97;5.40;;;20.60;77.80;;;;;;4992988;28;20193;-59
2022/07/29 00:09:30;;;;;;;6.53;5.50;;;20.70;77.80;;;;;;4991876;28;20191;-59
2022/07/29 00:11:59;;;;;;;7.23;5.30;;;20.60;77.90;;;;;;5009267;28;20192;-59
2022/07/29 00:14:25;;;;;;;6.43;5.50;;;20.70;78.30;;;;;;4991979;28;20231;-59
2022/07/29 00:16:50;;;;;;;6.50;5.73;;;20.70;78.30;;;;;;4990515;28;20248;-59
2022/07/29 00:19:16;;;;;;;7.63;5.93;;;20.70;78.40;;;;;;5007211;28;21318;-59
2022/07/29 00:21:41;;;;;;;7.83;5.53;;;20.70;78.60;;;;;;5004071;28;20190;-59
2022/07/29 00:24:07;;;;;;;9.10;6.83;;;20.70;78.60;;;;;;4985206;28;20197;-59
2022/07/29 00:26:33;;;;;;;7.10;5.40;;;20.70;78.60;;;;;;4998809;28;20202;-59
2022/07/29 00:29:00;;;;;;;6.37;5.77;;;20.70;78.70;;;;;;4989487;28;20196;-59
2022/07/29 00:31:26;;;;;;;5.60;5.07;;;20.70;78.70;;;;;;4991242;28;20222;-59
2022/07/29 00:33:52;;;;;;;7.87;5.70;;;20.70;78.50;;;;;;4976079;28;20216;-59
2022/07/29 00:36:17;;;;;;;5.43;4.90;;;20.70;78.30;;;;;;4993790;28;20199;-59
2022/07/29 00:38:45;;;;;;;6.40;5.60;;;20.70;78.40;;;;;;4995240;28;20188;-59
2022/07/29 00:41:11;;;;;;;7.93;6.10;;;20.70;78.50;;;;;;4997110;28;20192;-59
2022/07/29 00:43:37;;;;;;;10.03;5.73;;;20.70;78.50;;;;;;4987114;28;20189;-59
2022/07/29 00:46:03;;;;;;;6.10;5.40;;;20.70;78.70;;;;;;5009579;28;20207;-59
2022/07/29 00:48:29;;;;;;;6.57;5.93;;;20.60;78.60;;;;;;4989670;28;20200;-59
2022/07/29 00:50:57;;;;;;;6.87;5.47;;;20.60;78.40;;;;;;4967429;28;20193;-59
2022/07/29 00:53:24;;;;;;;9.23;5.93;;;20.60;78.30;;;;;;5006174;28;20223;-59
2022/07/29 00:55:50;;;;;;;10.30;6.27;;;20.60;78.60;;;;;;5008098;28;20227;-59
2022/07/29 00:58:16;;;;;;;7.10;6.40;;;20.60;78.70;;;;;;5005947;28;20251;-59
2022/07/29 01:00:41;;;;;;;7.37;6.23;;;20.50;78.80;;;;;;4983531;28;20208;-59
2022/07/29 01:03:08;;;;;;;8.13;5.87;;;20.60;78.70;;;;;;4994209;28;20193;-59
2022/07/29 01:05:35;;;;;;;6.50;5.73;;;20.60;78.80;;;;;;5010570;28;20188;-59
2022/07/29 01:08:01;;;;;;;8.63;6.10;;;20.60;78.80;;;;;;5008212;28;20188;-59
2022/07/29 01:10:28;;;;;;;6.67;5.60;;;20.60;78.70;;;;;;4996897;28;20192;-59
2022/07/29 01:12:57;;;;;;;6.47;5.70;;;20.60;78.70;;;;;;4984580;28;20239;-59
2022/07/29 01:15:22;;;;;;;9.20;5.87;;;20.70;78.80;;;;;;4985769;28;20204;-59
2022/07/29 01:18:17;;;;;;;11.67;6.30;;;20.60;78.70;;;;;;4998515;28;20191;-59
2022/07/29 01:20:49;;;;;;;6.30;5.70;;;20.60;78.60;;;;;;4969772;28;20210;-59
2022/07/29 01:23:41;;;;;;;6.17;5.57;;;20.60;78.80;;;;;;4980201;28;20188;-59
2022/07/29 01:26:35;;;;;;;9.40;6.63;;;20.60;78.50;;;;;;5005161;28;20200;-59
2022/07/29 01:29:40;;;;;;;9.27;6.37;;;20.60;78.50;;;;;;4995978;28;20199;-59
2022/07/29 01:32:15;;;;;;;7.63;6.50;;;20.60;78.60;;;;;;4997929;28;20218;-59
2022/07/29 01:35:08;;;;;;;7.23;6.53;;;20.60;78.70;;;;;;4982014;28;20254;-59
2022/07/29 01:37:43;;;;;;;8.77;6.60;;;20.50;79.10;;;;;;5012851;28;20188;-59
2022/07/29 01:40:40;;;;;;;7.07;5.77;;;20.50;79.20;;;;;;4989449;28;20179;-59
2022/07/29 01:43:31;;;;;;;7.27;6.60;;;20.50;79.20;;;;;;4988310;28;20299;-59
2022/07/29 01:46:01;;;;;;;9.63;6.37;;;20.50;79.30;;;;;;5011206;28;20236;-59
2022/07/29 01:49:01;;;;;;;7.10;6.40;;;20.40;79.30;;;;;;4992288;28;20556;-59
2022/07/29 01:51:47;;;;;;;7.77;6.77;;;20.50;79.30;;;;;;4993264;28;20235;-59
2022/07/29 01:54:16;;;;;;;6.67;6.00;;;20.50;79.20;;;;;;5007286;28;20215;-59
2022/07/29 01:56:44;;;;;;;7.20;5.37;;;20.50;79.20;;;;;;4979870;28;20192;-59
2022/07/29 01:59:11;;;;;;;10.03;5.97;;;20.40;79.30;;;;;;4981326;28;20188;-59
2022/07/29 02:01:40;;;;;;;9.27;6.17;;;20.50;79.20;;;;;;4969303;28;20191;-59
2022/07/29 02:04:09;;;;;;;6.67;5.97;;;20.40;79.30;;;;;;4980607;28;20223;-59
2022/07/29 02:06:37;;;;;;;7.13;6.40;;;20.40;79.30;;;;;;4988304;28;20200;-59
2022/07/29 02:09:06;;;;;;;9.23;6.70;;;20.30;79.20;;;;;;4982779;28;20187;-59
2022/07/29 02:11:34;;;;;;;6.87;6.27;;;20.30;79.20;;;;;;4998555;28;20292;-59
2022/07/29 02:14:01;;;;;;;8.20;6.87;;;20.30;79.00;;;;;;4990492;28;20248;-59
2022/07/29 02:16:30;;;;;;;6.97;6.27;;;20.30;79.00;;;;;;5002515;28;20194;-59
2022/07/29 02:18:58;;;;;;;6.63;6.00;;;20.20;79.20;;;;;;4995911;28;20176;-59
2022/07/29 02:21:25;;;;;;;11.93;6.60;;;20.20;79.40;;;;;;5009403;28;20184;-59
2022/07/29 02:23:57;;;;;;;7.43;6.67;;;20.20;79.40;;;;;;4978812;28;20259;-59
2022/07/29 02:26:25;;;;;;;6.70;6.13;;;20.10;79.50;;;;;;4994837;28;20215;-59
2022/07/29 02:28:54;;;;;;;7.87;6.67;;;20.10;79.70;;;;;;4995278;28;20313;-59
2022/07/29 02:31:25;;;;;;;7.67;6.97;;;20.10;79.60;;;;;;4996460;28;20188;-59
2022/07/29 02:33:52;;;;;;;7.53;6.00;;;20.10;79.50;;;;;;5001307;28;20213;-59
2022/07/29 02:36:22;;;;;;;11.50;6.90;;;20.00;79.70;;;;;;5009098;28;20200;-59
2022/07/29 02:38:51;;;;;;;6.57;5.97;;;20.00;79.90;;;;;;5001228;28;20181;-59
2022/07/29 02:41:35;;;;;;;7.97;7.27;;;19.90;80.20;;;;;;4996915;28;20208;-59
2022/07/29 02:44:10;;;;;;;8.50;6.90;;;19.90;80.20;;;;;;5005908;28;20226;-59
2022/07/29 02:46:41;;;;;;;8.57;6.67;;;19.80;80.00;;;;;;4990929;28;20283;-59
2022/07/29 02:49:33;;;;;;;9.47;6.60;;;19.80;80.20;;;;;;5002395;28;20184;-59
2022/07/29 02:52:03;;;;;;;12.67;7.13;;;19.80;80.50;;;;;;4980960;28;20204;-59
2022/07/29 02:54:53;;;;;;;7.13;6.30;;;19.80;80.60;;;;;;5015880;28;20207;-59
2022/07/29 02:57:27;;;;;;;7.67;6.97;;;19.70;80.70;;;;;;4983304;28;20251;-59
2022/07/29 02:59:57;;;;;;;9.73;6.90;;;19.70;80.80;;;;;;5010078;28;20180;-59
2022/07/29 03:02:25;;;;;;;8.47;6.40;;;19.70;80.90;;;;;;4991873;28;20220;-59
2022/07/29 03:04:52;;;;;;;9.87;7.20;;;19.70;80.70;;;;;;4990351;28;20215;-59
2022/07/29 03:07:20;;;;;;;7.17;6.57;;;19.60;80.80;;;;;;4994593;28;20203;-59
2022/07/29 03:09:46;;;;;;;7.53;6.80;;;19.60;80.90;;;;;;4990853;28;20191;-59
2022/07/29 03:12:13;;;;;;;6.90;6.20;;;19.60;81.30;;;;;;4991367;28;20196;-59
2022/07/29 03:14:39;;;;;;;7.33;6.60;;;19.50;81.00;;;;;;4984145;28;20204;-59
2022/07/29 03:17:05;;;;;;;7.93;6.83;;;19.50;81.10;;;;;;5007083;28;20200;-59
2022/07/29 03:19:31;;;;;;;7.03;6.43;;;19.50;81.00;;;;;;4994223;28;20262;-59
2022/07/29 03:21:58;;;;;;;7.47;6.63;;;19.40;81.10;;;;;;4991986;28;20200;-59
2022/07/29 03:24:29;;;;;;;6.73;6.10;;;19.40;81.10;;;;;;5009800;28;20195;-59
2022/07/29 03:26:56;;;;;;;7.27;6.47;;;19.30;81.30;;;;;;4983603;28;20192;-59
2022/07/29 03:29:22;;;;;;;7.37;6.63;;;19.30;81.10;;;;;;4992163;28;20272;-59
2022/07/29 03:31:47;;;;;;;8.30;7.50;;;19.30;81.20;;;;;;5001467;28;20271;-59
2022/07/29 03:34:13;;;;;;;7.43;6.60;;;19.30;81.20;;;;;;5008784;28;20223;-59
2022/07/29 03:36:39;;;;;;;7.33;6.63;;;19.30;81.50;;;;;;4968854;28;20208;-59
2022/07/29 03:39:06;;;;;;;10.87;7.30;;;19.30;81.40;;;;;;4993903;28;20218;-59
2022/07/29 03:41:35;;;;;;;7.40;6.67;;;19.30;81.30;;;;;;4986805;28;20188;-59
2022/07/29 03:44:02;;;;;;;7.13;6.53;;;19.30;81.40;;;;;;4987348;28;20190;-59
2022/07/29 03:46:29;;;;;;;7.53;6.83;;;19.30;81.50;;;;;;5010506;28;20200;-59
2022/07/29 03:49:01;;;;;;;7.93;6.97;;;19.20;81.40;;;;;;4977492;28;20192;-59
2022/07/29 03:51:27;;;;;;;7.67;6.97;;;19.20;81.50;;;;;;4991060;28;20203;-59
2022/07/29 03:53:53;;;;;;;8.40;7.60;;;19.20;81.70;;;;;;5005385;28;20282;-59
2022/07/29 03:56:21;;;;;;;7.80;7.10;;;19.20;81.80;;;;;;4993841;28;20192;-59
2022/07/29 03:58:51;;;;;;;7.70;7.00;;;19.20;82.00;;;;;;4974594;28;20189;-59
2022/07/29 04:01:18;;;;;;;7.60;6.60;;;19.20;81.90;;;;;;4994219;28;20319;-59
2022/07/29 04:03:47;;;;;;;6.97;6.30;;;19.20;81.80;;;;;;4991118;28;20188;-59
2022/07/29 04:06:13;;;;;;;8.40;6.27;;;19.10;81.80;;;;;;4994163;28;20282;-59
2022/07/29 04:08:38;;;;;;;7.60;6.90;;;19.20;81.60;;;;;;4982768;28;20283;-59
2022/07/29 04:11:04;;;;;;;7.60;6.90;;;19.20;81.70;;;;;;4994165;28;20197;-59
2022/07/29 04:13:31;;;;;;;8.20;7.00;;;19.20;81.70;;;;;;4990095;28;20241;-59
2022/07/29 04:15:57;;;;;;;10.10;7.47;;;19.10;81.80;;;;;;4991109;28;20257;-59
2022/07/29 04:18:23;;;;;;;8.10;7.33;;;19.10;82.00;;;;;;5004329;28;20253;-59
2022/07/29 04:20:49;;;;;;;7.80;7.00;;;19.00;82.20;;;;;;4992720;28;20220;-59
2022/07/29 04:23:14;;;;;;;7.97;7.20;;;19.00;82.20;;;;;;4989358;28;20224;-59
2022/07/29 04:25:41;;;;;;;8.07;7.47;;;19.10;82.10;;;;;;4993040;28;20276;-59
2022/07/29 04:28:08;;;;;;;7.70;7.00;;;19.10;82.10;;;;;;4977138;28;20275;-59
2022/07/29 04:30:35;;;;;;;7.20;6.50;;;19.10;82.20;;;;;;4993497;28;20251;-59
2022/07/29 04:33:03;;;;;;;7.87;7.00;;;19.10;82.10;;;;;;4990139;28;20180;-59
2022/07/29 04:35:29;;;;;;;9.50;7.37;;;19.10;82.50;;;;;;5004752;28;20245;-59
2022/07/29 04:37:55;;;;;;;8.60;7.43;;;19.00;82.30;;;;;;4992768;28;20190;-59
2022/07/29 04:40:21;;;;;;;7.67;6.83;;;19.10;82.50;;;;;;4993390;28;20184;-58
2022/07/29 04:42:46;;;;;;;7.80;7.00;;;19.10;82.50;;;;;;4993284;28;20184;-58
2022/07/29 04:45:12;;;;;;;8.30;7.37;;;19.10;82.50;;;;;;4993151;28;20208;-59
2022/07/29 04:47:38;;;;;;;8.10;7.20;;;19.10;82.70;;;;;;4987949;28;20280;-59
2022/07/29 04:50:05;;;;;;;8.10;7.30;;;19.10;82.80;;;;;;4988368;28;20193;-59
2022/07/29 04:52:30;;;;;;;7.60;6.90;;;19.10;82.80;;;;;;4989681;28;20197;-59
2022/07/29 04:54:56;;;;;;;8.00;7.20;;;19.00;82.90;;;;;;4986341;28;20227;-59
2022/07/29 04:57:22;;;;;;;7.07;6.37;;;19.10;82.80;;;;;;4984482;28;20185;-59
2022/07/29 04:59:48;;;;;;;7.80;7.20;;;19.10;83.00;;;;;;4989951;28;20185;-59
2022/07/29 05:02:14;;;;;;;8.33;7.27;;;19.10;83.00;;;;;;4970702;28;20267;-59
2022/07/29 05:04:39;;;;;;;7.60;6.90;;;19.20;83.00;;;;;;4993503;28;20228;-59
2022/07/29 05:07:05;;;;;;;9.13;6.80;;;19.20;83.10;;;;;;4989028;28;20204;-60
2022/07/29 05:09:32;;;;;;;7.70;7.00;;;19.20;83.00;;;;;;4971681;28;20196;-60
2022/07/29 05:11:57;;;;;;;8.97;6.83;;;19.30;82.90;;;;;;4992646;28;20200;-58
2022/07/29 05:14:23;;;;;;;7.73;6.90;;;19.30;82.70;;;;;;4985260;28;20247;-60
2022/07/29 05:16:50;;;;;;;8.17;7.13;;;19.40;82.70;;;;;;4989351;28;20312;-59
2022/07/29 05:19:17;;;;;;;10.00;7.13;;;19.40;82.70;;;;;;4991002;28;20199;-59
2022/07/29 05:21:44;;;;;;;7.43;6.73;;;19.40;82.60;;;;;;4993132;28;20264;-60
2022/07/29 05:24:09;;;;;;;9.90;6.90;;;19.40;82.60;;;;;;5003037;28;20197;-61
2022/07/29 05:26:35;;;;;;;10.43;7.67;;;19.50;82.40;;;;;;5001847;28;20192;-60
2022/07/29 05:29:01;;;;;;;9.20;7.40;;;19.50;82.20;;;;;;4990718;28;20288;-59
2022/07/29 05:31:27;;;;;;;8.23;7.43;;;19.50;82.20;;;;;;4993990;28;20200;-60
2022/07/29 05:33:52;;;;;;;7.83;7.03;;;19.60;82.20;;;;;;4995514;28;20315;-59
2022/07/29 05:36:18;;;;;;;8.07;6.60;;;19.60;82.10;;;;;;4996491;28;20260;-60
2022/07/29 05:38:44;;;;;;;8.03;6.90;;;19.70;82.10;;;;;;4979289;28;20327;-59
2022/07/29 05:41:09;;;;;;;7.73;6.97;;;19.70;82.20;;;;;;4979955;28;20231;-59
2022/07/29 05:43:35;;;;;;;7.37;6.67;;;19.70;82.10;;;;;;4995865;28;20251;-59
2022/07/29 05:46:00;;;;;;;8.90;7.50;;;19.70;82.10;;;;;;4976152;28;20188;-59
2022/07/29 05:48:26;;;;;;;9.63;8.07;;;19.70;82.00;;;;;;5001394;28;20185;-60
2022/07/29 05:50:52;;;;;;;10.87;7.50;;;19.70;82.00;;;;;;4995546;28;20223;-59
2022/07/29 05:53:18;;;;;;;8.00;6.87;;;19.70;82.10;;;;;;5006797;28;20197;-60
2022/07/29 05:55:43;;;;;;;9.60;7.07;;;19.70;82.20;;;;;;4978598;28;20185;-59
2022/07/29 05:58:09;;;;;;;8.20;7.40;;;19.70;82.30;;;;;;4993049;28;20185;-61
2022/07/29 06:00:35;;;;;;;7.43;6.77;;;19.80;82.30;;;;;;4963884;28;20200;-59
2022/07/29 06:03:01;;;;;;;8.60;7.77;;;19.80;82.20;;;;;;4966267;28;20204;-59
2022/07/29 06:05:26;;;;;;;8.20;7.40;;;19.80;82.20;;;;;;4991979;28;20201;-59
2022/07/29 06:07:53;;;;;;;8.53;7.60;;;19.80;82.20;;;;;;5001137;28;20192;-60
2022/07/29 06:10:18;;;;;;;7.70;7.00;;;19.80;82.10;;;;;;4995536;28;20192;-60
2022/07/29 06:12:44;;;;;;;9.40;7.60;;;19.80;82.20;;;;;;5009053;28;20252;-60
2022/07/29 06:15:10;;;;;;;9.30;7.63;;;19.80;82.30;;;;;;4992532;28;20332;-60
2022/07/29 06:17:36;;;;;;;8.27;7.43;;;19.80;82.30;;;;;;5012276;28;20176;-61
2022/07/29 06:20:02;;;;;;;10.57;6.97;;;19.90;82.40;;;;;;4993958;28;20334;-61
2022/07/29 06:22:28;;;;;;;7.90;7.13;;;19.90;82.40;;;;;;4994646;28;20188;-60
2022/07/29 06:24:54;;;;;;;8.60;7.90;;;20.00;82.40;;;;;;4959565;28;20216;-61
2022/07/29 06:27:19;;;;;;;8.70;7.40;;;20.00;82.40;;;;;;4983672;28;20252;-60
2022/07/29 06:29:45;;;;;;;8.40;7.53;;;20.00;82.50;;;;;;4982546;28;20227;-59
2022/07/29 06:32:11;;;;;;;8.67;7.77;;;20.00;82.40;;;;;;4985567;28;20220;-61
2022/07/29 06:34:36;;;;;;;7.60;6.90;;;20.00;82.40;;;;;;4993330;28;20224;-61
2022/07/29 06:37:08;;;;;;;8.10;7.40;;;20.00;82.40;;;;;;4995107;28;20217;-60
2022/07/29 06:39:36;;;;;;;8.10;7.30;;;20.10;82.30;;;;;;5006083;28;20234;-59
2022/07/29 06:42:03;;;;;;;9.30;7.20;;;20.10;82.30;;;;;;5017954;28;20188;-60
2022/07/29 06:44:29;;;;;;;7.87;7.20;;;20.10;82.40;;;;;;4994738;28;20191;-60
2022/07/29 06:46:55;;;;;;;12.00;7.80;;;20.20;82.30;;;;;;4994453;28;20192;-60
2022/07/29 06:49:22;;;;;;;7.63;6.93;;;20.20;82.40;;;;;;4986109;28;20252;-60
2022/07/29 06:51:47;;;;;;;10.27;7.33;;;20.30;82.40;;;;;;4991776;28;20221;-60
2022/07/29 06:54:13;;;;;;;8.33;7.53;;;20.30;82.10;;;;;;5000954;28;20217;-61
2022/07/29 06:56:41;;;;;;;7.43;6.73;;;20.30;81.90;;;;;;5001704;28;20222;-60
2022/07/29 06:59:11;;;;;;;9.10;7.03;;;20.30;81.90;;;;;;4985044;28;20184;-60
2022/07/29 07:01:40;;;;;;;7.30;6.43;;;20.40;81.70;;;;;;4978783;28;20252;-60
2022/07/29 07:04:06;;;;;;;7.57;6.87;;;20.50;81.50;;;;;;4987441;28;20192;-60
2022/07/29 07:06:32;;;;;;;7.93;7.00;;;20.50;81.40;;;;;;4989344;28;20223;-61
2022/07/29 07:08:57;;;;;;;7.87;7.07;;;20.60;81.00;;;;;;4994717;28;20216;-60
2022/07/29 07:11:23;;;;;;;7.87;7.00;;;20.60;80.70;;;;;;4968285;28;20204;-60
2022/07/29 07:13:49;;;;;;;7.17;6.50;;;20.70;80.80;;;;;;4974195;28;20239;-60
2022/07/29 07:16:14;;;;;;;7.63;6.53;;;20.70;80.80;;;;;;4993499;28;20244;-60
2022/07/29 07:18:40;;;;;;;7.70;7.00;;;20.80;80.80;;;;;;5007139;28;20207;-60
2022/07/29 07:21:06;;;;;;;7.77;6.97;;;20.80;80.60;;;;;;4993261;28;20184;-60
2022/07/29 07:23:31;;;;;;;7.30;6.60;;;20.80;80.70;;;;;;4993445;28;20188;-60
2022/07/29 07:25:57;;;;;;;7.63;6.50;;;20.80;80.50;;;;;;5004109;28;20193;-60
2022/07/29 07:28:23;;;;;;;8.80;6.80;;;20.90;80.60;;;;;;4973213;28;20259;-60
2022/07/29 07:30:48;;;;;;;7.97;7.17;;;20.90;80.50;;;;;;4998569;28;20211;-60
2022/07/29 07:33:14;;;;;;;7.57;6.87;;;21.00;79.90;;;;;;4992442;28;20191;-60
2022/07/29 07:35:41;;;;;;;6.77;6.00;;;21.10;80.20;;;;;;4993296;28;20209;-60
2022/07/29 07:38:06;;;;;;;6.47;5.87;;;21.10;80.40;;;;;;4989573;28;20200;-60
2022/07/29 07:40:32;;;;;;;7.00;6.40;;;21.10;79.70;;;;;;4993903;28;20192;-60
2022/07/29 07:42:58;;;;;;;6.73;6.13;;;21.20;79.20;;;;;;4990433;28;20177;-60
2022/07/29 07:45:23;;;;;;;6.10;5.50;;;21.30;76.10;;;;;;4989054;28;20283;-60
2022/07/29 07:47:49;;;;;;;6.43;5.77;;;21.70;73.70;;;;;;4993675;28;20273;-60
2022/07/29 07:50:17;;;;;;;6.57;5.87;;;21.80;74.80;;;;;;4994293;28;20262;-60
2022/07/29 07:52:51;;;;;;;6.63;6.13;;;21.80;75.30;;;;;;4992380;28;20226;-60
2022/07/29 07:55:18;;;;;;;6.80;5.70;;;21.80;76.40;;;;;;4990035;28;20212;-60
2022/07/29 07:57:45;;;;;;;7.37;6.37;;;21.90;74.20;;;;;;4975287;28;20208;-60
2022/07/29 08:00:12;;;;;;;6.77;6.17;;;21.90;74.90;;;;;;5007454;28;20204;-60
2022/07/29 08:02:39;;;;;;;6.33;5.73;;;22.00;75.60;;;;;;4993361;28;20180;-60
2022/07/29 08:05:06;;;;;;;6.90;6.20;;;22.00;75.30;;;;;;4984060;28;20188;-60
2022/07/29 08:07:32;;;;;;;6.07;5.57;;;22.00;75.50;;;;;;5007017;28;20250;-61
2022/07/29 08:09:58;;;;;;;6.73;5.93;;;22.10;75.60;;;;;;4991405;28;20182;-60
2022/07/29 08:12:23;;;;;;;6.30;5.30;;;22.10;75.70;;;;;;4988866;28;20274;-60
2022/07/29 08:14:49;;;;;;;6.50;5.70;;;22.20;74.40;;;;;;4991558;28;20219;-59
2022/07/29 08:17:14;;;;;;;5.60;5.10;;;22.20;74.60;;;;;;4993761;28;20196;-59
2022/07/29 08:19:40;;;;;;;5.97;5.43;;;22.20;74.80;;;;;;4983313;28;20201;-59
2022/07/29 08:22:06;;;;;;;6.10;5.00;;;22.30;74.70;;;;;;4959969;28;20195;-59
2022/07/29 08:24:46;;;;;;;6.27;5.73;;;22.30;75.20;;;;;;4992141;28;20251;-59
2022/07/29 08:27:13;;;;;;;6.13;5.53;;;22.40;75.60;;;;;;4979065;28;20192;-59
2022/07/29 08:29:39;;;;;;;5.50;4.97;;;22.40;74.90;;;;;;4991354;28;20200;-59
2022/07/29 08:32:06;;;;;;;5.50;5.10;;;22.50;74.00;;;;;;4989414;28;20196;-59
2022/07/29 08:34:32;;;;;;;6.43;5.83;;;22.60;71.60;;;;;;5009476;28;20226;-59
2022/07/29 08:36:58;;;;;;;5.53;5.03;;;22.70;73.20;;;;;;4980308;28;20201;-59
2022/07/29 08:39:24;;;;;;;6.03;5.43;;;22.70;71.10;;;;;;5003391;28;20191;-59
2022/07/29 08:41:51;;;;;;;6.23;5.17;;;22.70;71.60;;;;;;4994249;28;20263;-59
2022/07/29 08:44:18;;;;;;;5.40;4.90;;;22.80;69.70;;;;;;4990210;28;20196;-59
2022/07/29 08:46:44;;;;;;;6.50;5.10;;;23.10;67.90;;;;;;5008962;28;20205;-59
2022/07/29 08:49:09;;;;;;;4.97;4.47;;;23.20;67.70;;;;;;4988691;28;20185;-59
2022/07/29 08:51:38;;;;;;;6.47;5.10;;;23.40;65.50;;;;;;5000914;28;20191;-59
2022/07/29 08:54:05;;;;;;;5.33;4.93;;;23.40;67.30;;;;;;5006814;28;20212;-59
2022/07/29 08:56:31;;;;;;;4.77;4.37;;;23.50;67.20;;;;;;4993236;28;20291;-58
2022/07/29 08:58:58;;;;;;;5.10;4.70;;;23.60;68.10;;;;;;4992839;28;20195;-58
2022/07/29 09:01:27;;;;;;;5.10;4.70;;;23.70;69.40;;;;;;4964346;28;20191;-59
2022/07/29 09:03:56;;;;;;;7.23;4.40;;;23.70;69.30;;;;;;4993828;28;20181;-59
2022/07/29 09:06:25;;;;;;;6.07;4.50;;;23.80;67.10;;;;;;4985382;28;20260;-59
2022/07/29 09:08:51;;;;;;;5.10;4.60;;;24.10;66.30;;;;;;4988074;28;20184;-60
2022/07/29 09:11:17;;;;;;;5.23;4.13;;;24.20;66.50;;;;;;4996332;28;20211;-59
2022/07/29 09:13:43;;;;;;;4.73;4.33;;;24.20;66.60;;;;;;5011496;28;20236;-59
2022/07/29 09:16:09;;;;;;;4.30;3.90;;;24.20;67.00;;;;;;4989871;28;20278;-59
2022/07/29 09:18:42;;;;;;;4.53;4.13;;;24.30;64.60;;;;;;4994861;28;20216;-59
2022/07/29 09:24:00;;;;;;;4.83;4.33;;;24.40;66.10;;;;;;5009508;28;20207;-59
2022/07/29 09:26:30;;;;;;;5.40;4.90;;;24.40;66.10;;;;;;4988677;28;20193;-59
2022/07/29 09:28:57;;;;;;;4.77;4.30;;;24.40;66.50;;;;;;4997150;28;20200;-60
2022/07/29 09:31:35;;;;;;;5.83;4.57;;;24.40;67.50;;;;;;4995087;28;20193;-59
2022/07/29 09:34:02;;;;;;;5.10;4.57;;;24.50;64.70;;;;;;4995335;28;20312;-59
2022/07/29 09:36:28;;;;;;;5.83;4.40;;;24.50;63.60;;;;;;4996611;28;20189;-59
2022/07/29 09:39:00;;;;;;;5.10;4.00;;;24.50;62.80;;;;;;4995017;28;20246;-59
2022/07/29 09:41:27;;;;;;;4.93;4.40;;;24.50;60.10;;;;;;4994375;28;20176;-60
2022/07/29 09:44:01;;;;;;;5.57;4.73;;;24.50;61.90;;;;;;5004572;28;20219;-60
2022/07/29 09:46:27;;;;;;;4.63;4.17;;;24.50;58.00;;;;;;4988957;28;20220;-60
2022/07/29 09:49:13;;;;;;;5.43;4.40;;;24.70;57.40;;;;;;4964110;28;20262;-60
2022/07/29 09:51:40;;;;;;;4.67;4.13;;;24.80;56.90;;;;;;4995974;28;20231;-60
2022/07/29 09:54:23;;;;;;;6.03;4.57;;;24.80;58.20;;;;;;5008141;28;20232;-59
2022/07/29 09:56:49;;;;;;;5.10;4.23;;;24.80;59.80;;;;;;4994015;28;20211;-60
2022/07/29 09:59:15;;;;;;;5.17;4.10;;;24.90;58.70;;;;;;4986802;28;20185;-60
2022/07/29 10:01:41;;;;;;;5.20;4.30;;;25.00;60.90;;;;;;4992429;28;20180;-60
2022/07/29 10:04:06;;;;;;;4.70;4.27;;;25.00;59.00;;;;;;4995450;28;20210;-60
2022/07/29 10:06:32;;;;;;;4.63;4.23;;;25.10;60.00;;;;;;4994579;28;20252;-59
2022/07/29 10:09:09;;;;;;;4.90;4.40;;;25.20;55.70;;;;;;4995527;28;20189;-60
2022/07/29 10:11:34;;;;;;;6.97;4.30;;;25.30;59.20;;;;;;5008713;28;20196;-59
2022/07/29 10:14:02;;;;;;;4.93;4.20;;;25.30;59.90;;;;;;5009395;28;20231;-60
2022/07/29 10:16:32;;;;;;;5.23;4.70;;;25.30;60.10;;;;;;4994503;28;20192;-60
2022/07/29 10:18:59;;;;;;;5.27;4.40;;;25.30;59.90;;;;;;4981469;28;20250;-59
2022/07/29 10:21:28;;;;;;;4.73;4.33;;;25.20;59.80;;;;;;4994104;28;20274;-59
2022/07/29 10:23:53;;;;;;;5.07;4.53;;;25.20;61.80;;;;;;4997251;28;20425;-59
2022/07/29 10:26:20;;;;;;;5.13;4.20;;;25.10;61.40;;;;;;4977412;28;20196;-60
2022/07/29 10:28:46;;;;;;;7.83;4.60;;;25.00;63.40;;;;;;4985241;28;20196;-59
2022/07/29 10:31:22;;;;;;;7.30;5.17;;;24.90;65.20;;;;;;4976953;28;20192;-59
2022/07/29 10:34:16;;;;;;;7.63;4.90;;;24.90;65.10;;;;;;5008779;28;20230;-59
2022/07/29 10:37:04;;;;;;;4.93;4.43;;;24.80;65.10;;;;;;4978897;28;20189;-59
2022/07/29 10:39:46;;;;;;;5.83;4.60;;;24.70;65.60;;;;;;4982942;28;20188;-60
2022/07/29 10:42:24;;;;;;;6.47;4.00;;;24.70;66.20;;;;;;4999480;28;20184;-59
2022/07/29 10:44:51;;;;;;;4.80;4.30;;;24.60;60.00;;;;;;4994820;28;20184;-60
2022/07/29 10:47:35;;;;;;;5.23;4.73;;;24.60;62.10;;;;;;4980550;28;20211;-59
2022/07/29 10:50:05;;;;;;;4.80;4.10;;;24.50;64.30;;;;;;4996197;28;20187;-59
2022/07/29 10:52:49;;;;;;;5.17;4.60;;;24.60;65.80;;;;;;4983720;28;20185;-60
2022/07/29 10:55:38;;;;;;;5.57;4.20;;;24.60;66.20;;;;;;4988909;28;20220;-59
2022/07/29 10:58:26;;;;;;;6.30;4.40;;;24.60;65.70;;;;;;4982306;28;20191;-59
2022/07/29 11:00:53;;;;;;;6.27;4.40;;;24.70;66.00;;;;;;5000744;28;20221;-59
2022/07/29 11:03:51;;;;;;;5.90;4.23;;;24.70;63.80;;;;;;5005587;28;20193;-59
2022/07/29 11:06:17;;;;;;;5.87;4.73;;;24.80;63.20;;;;;;4988178;28;20286;-59
2022/07/29 11:08:43;;;;;;;4.97;4.03;;;25.00;61.80;;;;;;4979952;28;20223;-59
2022/07/29 11:11:27;;;;;;;4.27;3.87;;;25.20;63.40;;;;;;4978166;28;20212;-59
2022/07/29 11:13:54;;;;;;;4.70;3.93;;;25.30;65.50;;;;;;4989772;28;20239;-60
2022/07/29 11:16:25;;;;;;;5.23;4.03;;;25.50;62.10;;;;;;4992588;28;20272;-59
2022/07/29 11:19:12;;;;;;;5.07;4.00;;;25.70;61.70;;;;;;5011376;28;20187;-59
2022/07/29 11:21:40;;;;;;;5.60;4.23;;;25.80;56.40;;;;;;4993938;28;20183;-59
2022/07/29 11:24:14;;;;;;;4.80;3.67;;;25.90;54.80;;;;;;4988558;28;20184;-59
2022/07/29 11:26:40;;;;;;;5.80;3.90;;;26.00;55.90;;;;;;5010880;28;20256;-59
2022/07/29 11:29:05;;;;;;;6.60;3.90;;;26.20;55.70;;;;;;4978595;28;20205;-58
2022/07/29 11:31:37;;;;;;;6.00;4.73;;;26.20;57.20;;;;;;4994824;28;20188;-59
2022/07/29 11:34:19;;;;;;;8.43;4.80;;;26.30;59.30;;;;;;4993898;28;20295;-58
2022/07/29 11:37:08;;;;;;;4.77;4.37;;;26.50;60.30;;;;;;4975932;28;20196;-58
2022/07/29 11:39:35;;;;;;;4.40;4.00;;;26.70;59.90;;;;;;4994471;28;20180;-58
2022/07/29 11:42:16;;;;;;;5.90;4.47;;;26.80;59.30;;;;;;5009658;28;20212;-58
2022/07/29 11:45:17;;;;;;;7.17;4.77;;;26.90;57.90;;;;;;4990230;28;20223;-58
2022/07/29 11:47:48;;;;;;;5.97;4.20;;;26.90;56.10;;;;;;4976006;28;20209;-58
2022/07/29 11:50:17;;;;;;;4.97;4.50;;;27.00;54.70;;;;;;4991552;28;20192;-58
2022/07/29 11:52:47;;;;;;;5.20;4.80;;;27.10;54.50;;;;;;5003618;28;20247;-59
2022/07/29 11:55:23;;;;;;;6.33;4.37;;;27.10;54.30;;;;;;4977808;28;20209;-58
2022/07/29 11:58:00;;;;;;;4.73;4.20;;;27.00;52.70;;;;;;4984964;28;20271;-58
2022/07/29 12:00:33;;;;;;;6.00;4.80;;;26.90;53.40;;;;;;4993778;28;20183;-58
2022/07/29 12:03:01;;;;;;;5.17;4.57;;;26.80;55.00;;;;;;4985361;28;20196;-57
2022/07/29 12:05:39;;;;;;;5.20;4.63;;;26.70;54.20;;;;;;5006659;28;20237;-57
2022/07/29 12:08:22;;;;;;;10.83;5.03;;;26.60;57.20;;;;;;5002107;28;20196;-58
2022/07/29 12:10:50;;;;;;;5.50;4.60;;;26.50;59.20;;;;;;5001885;28;20226;-58
2022/07/29 12:13:18;;;;;;;5.30;4.63;;;26.30;59.60;;;;;;4981300;28;20272;-58
2022/07/29 12:15:52;;;;;;;5.23;4.60;;;26.20;56.10;;;;;;4988228;28;20216;-58
2022/07/29 12:18:20;;;;;;;5.60;5.00;;;26.20;58.70;;;;;;4989498;28;20194;-58
2022/07/29 12:20:47;;;;;;;4.80;4.40;;;26.10;60.90;;;;;;4998527;28;20204;-58
2022/07/29 12:23:14;;;;;;;5.93;4.90;;;26.00;61.80;;;;;;4989942;28;20212;-58
2022/07/29 12:25:43;;;;;;;5.97;4.60;;;25.90;63.00;;;;;;4978915;28;20181;-59
2022/07/29 12:28:12;;;;;;;5.03;4.53;;;25.90;62.90;;;;;;4997700;28;20199;-59
2022/07/29 12:30:39;;;;;;;5.37;4.70;;;25.80;63.40;;;;;;4989283;28;20192;-59
2022/07/29 12:33:12;;;;;;;7.60;5.07;;;25.80;63.20;;;;;;4993817;28;20188;-59
2022/07/29 12:35:38;;;;;;;7.73;4.60;;;25.70;59.60;;;;;;5012312;28;20250;-59
2022/07/29 12:38:05;;;;;;;7.67;4.70;;;25.70;62.30;;;;;;4993176;28;20196;-59
2022/07/29 12:40:30;;;;;;;5.03;3.97;;;25.70;59.90;;;;;;5010411;28;20181;-59
2022/07/29 12:43:09;;;;;;;4.97;4.40;;;25.70;57.80;;;;;;4985886;28;20219;-59
2022/07/29 12:45:36;;;;;;;6.20;4.57;;;25.70;58.10;;;;;;4994132;28;20279;-59
2022/07/29 12:48:02;;;;;;;4.77;4.13;;;25.80;59.70;;;;;;4985281;28;20185;-59
2022/07/29 12:50:28;;;;;;;6.47;4.47;;;25.90;58.20;;;;;;4992877;28;20192;-59
2022/07/29 12:52:54;;;;;;;4.57;4.17;;;26.00;58.50;;;;;;4994101;28;20219;-59
2022/07/29 12:55:51;;;;;;;4.87;4.43;;;26.10;59.10;;;;;;4987608;28;20239;-59
2022/07/29 12:58:31;;;;;;;5.10;4.63;;;26.20;58.50;;;;;;5001902;28;20212;-59
2022/07/29 13:01:02;;;;;;;4.83;4.40;;;26.20;56.50;;;;;;4981748;28;20181;-59